createdAt,value
2022-11-11T00:01:28.993Z,2.30
2022-11-11T00:04:14.856Z,3.17
2022-11-11T00:07:00.958Z,2.88
2022-11-11T00:09:46.787Z,2.83
2022-11-11T00:12:32.754Z,2.53
2022-11-11T00:15:18.528Z,2.53
2022-11-11T00:18:23.602Z,2.83
2022-11-11T00:21:32.809Z,3.28
2022-11-11T00:24:43.046Z,3.15
2022-11-11T00:27:28.807Z,3.13
2022-11-11T00:30:15.032Z,2.78
2022-11-11T00:33:00.882Z,3.22
2022-11-11T00:35:55.550Z,2.90
2022-11-11T00:38:49.601Z,2.70
2022-11-11T00:41:35.461Z,2.50
2022-11-11T00:44:21.381Z,3.30
2022-11-11T00:47:25.813Z,3.20
2022-11-11T00:50:35.796Z,3.25
2022-11-11T00:53:27.038Z,2.53
2022-11-11T00:56:13.644Z,2.60
2022-11-11T00:58:59.709Z,2.30
2022-11-11T01:01:45.234Z,3.10
2022-11-11T01:04:31.024Z,2.80
2022-11-11T01:07:17.067Z,2.80
2022-11-11T01:10:03.003Z,2.90
2022-11-11T01:12:48.804Z,2.80
2022-11-11T01:15:34.722Z,2.85
2022-11-11T01:18:24.774Z,2.17
2022-11-11T01:21:17.390Z,2.90
2022-11-11T01:24:03.577Z,2.75
2022-11-11T01:26:49.552Z,2.50
2022-11-11T01:29:35.010Z,2.78
2022-11-11T01:32:20.948Z,2.75
2022-11-11T01:35:07.370Z,2.50
2022-11-11T01:40:46.247Z,2.47
2022-11-11T01:43:31.748Z,2.65
2022-11-11T01:46:36.422Z,2.40
2022-11-11T01:49:22.544Z,2.78
2022-11-11T01:52:22.914Z,2.58
2022-11-11T01:55:10.402Z,2.47
2022-11-11T01:58:05.595Z,2.50
2022-11-11T02:00:52.085Z,2.60
2022-11-11T02:03:41.132Z,2.72
2022-11-11T02:06:29.164Z,2.58
2022-11-11T02:09:14.916Z,2.50
2022-11-11T02:12:23.040Z,2.20
2022-11-11T02:15:09.484Z,2.20
2022-11-11T02:17:55.320Z,2.80
2022-11-11T02:20:44.243Z,2.60
2022-11-11T02:30:18.100Z,2.70
2022-11-11T02:33:03.816Z,2.33
2022-11-11T02:35:59.063Z,2.70
2022-11-11T02:38:44.981Z,2.17
2022-11-11T02:42:03.532Z,2.22
2022-11-11T02:44:49.392Z,2.55
2022-11-11T02:47:35.321Z,2.40
2022-11-11T02:50:21.223Z,2.88
2022-11-11T02:53:07.333Z,2.58
2022-11-11T02:55:53.082Z,2.28
2022-11-11T02:58:39.245Z,2.53
2022-11-11T03:01:25.240Z,2.80
2022-11-11T03:04:11.382Z,2.80
2022-11-11T03:06:57.424Z,2.20
2022-11-11T03:09:42.987Z,2.30
2022-11-11T03:12:28.855Z,2.40
2022-11-11T03:15:14.692Z,2.35
2022-11-11T03:18:00.097Z,2.58
2022-11-11T03:21:37.251Z,2.53
2022-11-11T03:24:11.226Z,2.80
2022-11-11T03:26:56.933Z,2.10
2022-11-11T03:29:43.057Z,2.38
2022-11-11T03:32:29.164Z,2.42
2022-11-11T03:35:14.829Z,2.50
2022-11-11T03:38:15.942Z,2.17
2022-11-11T03:41:01.971Z,2.80
2022-11-11T03:43:47.272Z,2.42
2022-11-11T03:46:33.457Z,2.30
2022-11-11T03:49:19.278Z,2.20
2022-11-11T03:52:05.097Z,2.10
2022-11-11T03:54:50.913Z,1.98
2022-11-11T03:57:43.088Z,2.28
2022-11-11T04:00:29.754Z,2.03
2022-11-11T04:03:38.286Z,2.70
2022-11-11T04:06:43.134Z,2.38
2022-11-11T04:09:47.600Z,2.42
2022-11-11T04:12:54.755Z,2.13
2022-11-11T04:15:59.259Z,2.60
2022-11-11T04:19:03.132Z,2.38
2022-11-11T04:21:49.995Z,2.80
2022-11-11T04:27:39.342Z,2.30
2022-11-11T04:30:24.835Z,2.80
2022-11-11T04:33:10.524Z,2.30
2022-11-11T04:35:55.651Z,2.47
2022-11-11T04:38:59.623Z,2.50
2022-11-11T04:42:07.072Z,2.97
2022-11-11T04:45:09.298Z,2.88
2022-11-11T04:47:56.776Z,2.85
2022-11-11T04:50:44.002Z,4.07
2022-11-11T04:53:30.551Z,3.45
2022-11-11T04:56:34.461Z,3.15
2022-11-11T04:59:20.392Z,3.42
2022-11-11T05:02:24.424Z,3.58
2022-11-11T05:05:09.979Z,3.28
2022-11-11T05:08:14.480Z,3.40
2022-11-11T05:11:00.095Z,3.85
2022-11-11T05:14:04.408Z,4.18
2022-11-11T05:17:17.812Z,3.75
2022-11-11T05:20:38.570Z,3.67
2022-11-11T05:23:44.675Z,3.90
2022-11-11T05:26:32.128Z,3.53
2022-11-11T05:29:17.790Z,3.70
2022-11-11T05:32:05.157Z,3.63
2022-11-11T05:34:51.104Z,3.55
2022-11-11T05:37:36.756Z,3.40
2022-11-11T05:40:22.070Z,3.50
2022-11-11T05:43:07.491Z,4.07
2022-11-11T05:45:53.045Z,3.90
2022-11-11T05:48:58.637Z,3.55
2022-11-11T05:51:45.291Z,3.13
2022-11-11T05:57:15.739Z,3.72
2022-11-11T06:00:01.122Z,3.45
2022-11-11T06:02:46.662Z,3.20
2022-11-11T06:05:32.269Z,3.27
2022-11-11T06:08:17.704Z,2.78
2022-11-11T06:11:03.358Z,3.20
2022-11-11T06:13:49.768Z,3.78
2022-11-11T06:16:34.990Z,3.70
2022-11-11T06:19:20.331Z,3.33
2022-11-11T06:22:06.263Z,3.43
2022-11-11T06:25:11.844Z,3.28
2022-11-11T06:27:57.561Z,3.47
2022-11-11T06:30:50.133Z,3.40
2022-11-11T06:33:37.411Z,3.72
2022-11-11T06:36:23.465Z,3.40
2022-11-11T06:39:08.838Z,3.70
2022-11-11T06:41:54.149Z,4.05
2022-11-11T06:44:39.639Z,3.67
2022-11-11T06:47:24.949Z,3.47
2022-11-11T06:50:10.628Z,3.60
2022-11-11T06:52:56.412Z,3.28
2022-11-11T06:55:42.075Z,3.37
2022-11-11T06:58:27.827Z,2.90
2022-11-11T07:01:13.879Z,3.13
2022-11-11T07:03:59.185Z,3.67
2022-11-11T07:06:44.742Z,3.78
2022-11-11T07:09:30.234Z,4.43
2022-11-11T07:12:15.668Z,4.25
2022-11-11T07:15:01.123Z,3.63
2022-11-11T07:17:47.126Z,4.10
2022-11-11T07:20:32.667Z,3.72
2022-11-11T07:23:18.255Z,3.85
2022-11-11T07:26:04.066Z,6.93
2022-11-11T07:28:51.262Z,3.80
2022-11-11T07:31:36.734Z,5.53
2022-11-11T07:34:22.471Z,4.73
2022-11-11T07:37:07.688Z,3.63
2022-11-11T07:39:54.726Z,4.68
2022-11-11T07:42:41.840Z,5.22
2022-11-11T07:45:27.241Z,4.20
2022-11-11T07:48:12.742Z,4.93
2022-11-11T07:50:58.211Z,4.40
2022-11-11T07:53:43.645Z,3.95
2022-11-11T07:56:29.345Z,5.85
2022-11-11T07:59:15.106Z,4.95
2022-11-11T08:02:00.754Z,4.88
2022-11-11T08:04:48.911Z,4.57
2022-11-11T08:07:37.537Z,5.43
2022-11-11T08:10:23.010Z,4.18
2022-11-11T08:13:30.566Z,4.40
2022-11-11T08:16:16.602Z,3.60
2022-11-11T08:19:02.361Z,4.13
2022-11-11T08:21:47.654Z,4.72
2022-11-11T08:27:38.774Z,4.15
2022-11-11T08:30:24.229Z,4.65
2022-11-11T08:33:44.060Z,3.78
2022-11-11T08:36:20.220Z,4.35
2022-11-11T08:39:07.272Z,4.10
2022-11-11T08:41:52.750Z,4.18
2022-11-11T08:44:37.821Z,4.65
2022-11-11T08:47:25.002Z,4.43
2022-11-11T08:50:11.141Z,4.70
2022-11-11T08:52:56.945Z,4.53
2022-11-11T08:55:42.038Z,3.43
2022-11-11T08:58:27.770Z,4.13
2022-11-11T09:01:14.210Z,3.60
2022-11-11T09:04:16.758Z,3.95
2022-11-11T09:07:06.047Z,4.45
2022-11-11T09:09:51.254Z,4.80
2022-11-11T09:12:37.038Z,4.68
2022-11-11T09:15:22.937Z,5.40
2022-11-11T09:18:10.527Z,4.93
2022-11-11T09:21:01.069Z,5.03
2022-11-11T09:23:46.795Z,4.82
2022-11-11T09:26:32.255Z,4.63
2022-11-11T09:29:18.737Z,6.15
2022-11-11T09:32:04.464Z,4.75
2022-11-11T09:34:49.791Z,5.47
2022-11-11T09:37:35.253Z,5.18
2022-11-11T09:40:23.129Z,6.32
2022-11-11T09:43:35.231Z,6.07
2022-11-11T09:46:54.686Z,5.43
2022-11-11T09:49:42.883Z,6.38
2022-11-11T09:52:40.337Z,6.28
2022-11-11T09:56:30.211Z,6.43
2022-11-11T09:59:21.351Z,6.22
2022-11-11T10:02:18.114Z,6.35
2022-11-11T10:05:20.454Z,7.28
2022-11-11T10:08:27.211Z,6.22
2022-11-11T10:11:21.107Z,6.32
2022-11-11T10:14:06.621Z,6.05
2022-11-11T10:17:19.632Z,6.03
2022-11-11T10:20:18.314Z,5.63
2022-11-11T10:23:15.055Z,5.72
2022-11-11T10:26:10.336Z,6.13
2022-11-11T10:28:56.230Z,5.75
2022-11-11T10:34:33.582Z,4.97
2022-11-11T10:37:23.735Z,6.45
2022-11-11T10:40:29.702Z,5.70
2022-11-11T10:43:24.507Z,6.40
2022-11-11T10:46:15.614Z,6.05
2022-11-11T10:49:21.025Z,6.53
2022-11-11T10:52:14.471Z,8.65
2022-11-11T10:55:17.154Z,8.30
2022-11-11T10:58:13.048Z,7.20
2022-11-11T11:01:02.054Z,6.35
2022-11-11T11:03:59.695Z,7.47
2022-11-11T11:06:48.897Z,7.70
2022-11-11T11:09:42.795Z,8.13
2022-11-11T11:12:46.402Z,6.60
2022-11-11T11:15:33.992Z,6.60
2022-11-11T11:18:19.564Z,6.28
2022-11-11T11:21:07.080Z,7.03
2022-11-11T11:23:52.227Z,8.48
2022-11-11T11:26:46.494Z,7.50
2022-11-11T11:29:35.570Z,6.68
2022-11-11T11:32:27.385Z,7.40
2022-11-11T11:35:33.001Z,8.15
2022-11-11T11:38:19.068Z,7.35
2022-11-11T11:41:04.403Z,6.53
2022-11-11T11:43:49.893Z,7.68
2022-11-11T11:46:40.688Z,7.90
2022-11-11T11:49:39.595Z,7.78
2022-11-11T11:52:42.957Z,7.85
2022-11-11T11:56:07.126Z,6.63
2022-11-11T11:58:55.079Z,6.22
2022-11-11T12:01:59.363Z,6.85
2022-11-11T12:05:10.573Z,5.95
2022-11-11T12:08:02.015Z,6.55
2022-11-11T12:10:56.561Z,6.75
2022-11-11T12:13:54.231Z,7.47
2022-11-11T12:16:58.903Z,6.75
2022-11-11T12:19:52.887Z,6.30
2022-11-11T12:22:47.153Z,6.22
2022-11-11T12:25:45.178Z,6.28
2022-11-11T12:29:01.530Z,5.70
2022-11-11T12:31:58.918Z,7.50
2022-11-11T12:35:08.585Z,7.72
2022-11-11T12:38:06.198Z,7.15
2022-11-11T12:41:04.112Z,7.50
2022-11-11T12:43:52.601Z,8.30
2022-11-11T12:46:50.770Z,8.48
2022-11-11T12:50:10.030Z,8.40
2022-11-11T12:53:16.584Z,7.30
2022-11-11T12:56:10.007Z,8.40
2022-11-11T12:58:55.103Z,8.15
2022-11-11T13:02:09.809Z,7.53
2022-11-11T13:05:11.951Z,7.88
2022-11-11T13:08:34.454Z,8.32
2022-11-11T13:11:37.883Z,7.82
2022-11-11T13:14:44.212Z,8.00
2022-11-11T13:17:32.557Z,9.05
2022-11-11T13:20:36.269Z,8.52
2022-11-11T13:23:25.514Z,7.35
2022-11-11T13:26:43.335Z,8.65
2022-11-11T13:29:56.450Z,8.63
2022-11-11T13:32:48.573Z,9.10
2022-11-11T13:35:43.976Z,9.18
2022-11-11T13:38:49.208Z,9.38
2022-11-11T13:41:39.383Z,8.85
2022-11-11T13:44:30.682Z,9.15
2022-11-11T13:47:22.748Z,9.70
2022-11-11T13:50:33.368Z,9.45
2022-11-11T13:53:34.059Z,8.75
2022-11-11T13:56:31.912Z,9.82
2022-11-11T13:59:28.289Z,9.63
2022-11-11T14:02:19.758Z,8.55
2022-11-11T14:05:06.201Z,8.98
2022-11-11T14:07:54.751Z,8.70
2022-11-11T14:10:40.144Z,8.57
2022-11-11T14:13:34.571Z,8.20
2022-11-11T14:16:35.946Z,9.68
2022-11-11T14:19:21.167Z,8.50
2022-11-11T14:22:29.372Z,9.60
2022-11-11T14:25:28.091Z,8.05
2022-11-11T14:28:50.817Z,9.70
2022-11-11T14:31:52.686Z,8.63
2022-11-11T14:34:57.449Z,8.27
2022-11-11T14:37:44.741Z,8.05
2022-11-11T14:40:33.582Z,8.20
2022-11-11T14:43:38.196Z,9.15
2022-11-11T14:46:24.297Z,9.20
2022-11-11T14:49:10.117Z,9.20
2022-11-11T14:52:00.160Z,9.13
2022-11-11T14:55:03.839Z,7.90
2022-11-11T14:57:59.300Z,9.18
2022-11-11T15:00:57.872Z,9.05
2022-11-11T15:03:53.660Z,8.18
2022-11-11T15:06:57.201Z,8.63
2022-11-11T15:10:23.572Z,9.25
2022-11-11T15:13:11.821Z,10.90
2022-11-11T15:16:21.611Z,8.93
2022-11-11T15:19:13.009Z,10.02
2022-11-11T15:22:10.777Z,9.35
2022-11-11T15:25:15.150Z,10.18
2022-11-11T15:28:00.721Z,9.65
2022-11-11T15:31:05.143Z,10.80
2022-11-11T15:34:07.413Z,8.38
2022-11-11T15:36:57.487Z,9.98
2022-11-11T15:39:52.059Z,9.63
2022-11-11T15:42:43.006Z,9.10
2022-11-11T15:45:34.438Z,10.13
2022-11-11T15:48:24.478Z,9.30
2022-11-11T15:51:39.430Z,8.38
2022-11-11T15:54:26.334Z,8.23
2022-11-11T15:57:31.297Z,9.18
2022-11-11T16:00:37.274Z,6.80
2022-11-11T16:03:33.682Z,8.68
2022-11-11T16:06:19.458Z,8.85
2022-11-11T16:09:05.176Z,8.50
2022-11-11T16:11:54.713Z,7.70
2022-11-11T16:14:46.692Z,9.63
2022-11-11T16:17:40.610Z,7.72
2022-11-11T16:20:35.200Z,8.75
2022-11-11T16:23:22.173Z,6.68
2022-11-11T16:26:09.031Z,7.07
2022-11-11T16:31:45.117Z,7.23
2022-11-11T16:34:31.045Z,7.00
2022-11-11T16:37:17.687Z,8.77
2022-11-11T16:40:42.519Z,7.72
2022-11-11T16:43:44.894Z,8.50
2022-11-11T16:46:36.180Z,7.78
2022-11-11T16:49:33.191Z,7.75
2022-11-11T16:52:22.303Z,8.40
2022-11-11T16:55:10.804Z,7.90
2022-11-11T16:58:00.631Z,8.18
2022-11-11T17:00:46.531Z,8.88
2022-11-11T17:03:32.527Z,7.07
2022-11-11T17:06:18.458Z,6.43
2022-11-11T17:09:32.823Z,7.20
2022-11-11T17:12:31.020Z,7.07
2022-11-11T17:15:18.219Z,7.32
2022-11-11T17:18:04.084Z,8.07
2022-11-11T17:20:51.635Z,11.27
2022-11-11T17:23:40.344Z,15.63
2022-11-11T17:26:26.558Z,12.77
2022-11-11T17:29:13.024Z,10.82
2022-11-11T17:31:59.894Z,8.80
2022-11-11T17:34:45.550Z,9.60
2022-11-11T17:37:35.771Z,9.30
2022-11-11T17:40:21.662Z,7.85
2022-11-11T17:43:07.518Z,8.35
2022-11-11T17:45:53.131Z,8.90
2022-11-11T17:48:38.799Z,8.05
2022-11-11T17:51:25.108Z,8.77
2022-11-11T17:54:11.016Z,7.50
2022-11-11T17:56:56.511Z,8.32
2022-11-11T17:59:42.325Z,7.20
2022-11-11T18:02:27.911Z,8.82
2022-11-11T18:05:14.181Z,8.80
2022-11-11T18:08:00.551Z,9.23
2022-11-11T18:10:46.506Z,10.55
2022-11-11T18:13:32.544Z,8.32
2022-11-11T18:16:19.152Z,9.63
2022-11-11T18:19:05.091Z,8.40
2022-11-11T18:21:50.927Z,7.30
2022-11-11T18:24:36.930Z,7.65
2022-11-11T18:27:22.801Z,7.07
2022-11-11T18:30:09.918Z,7.38
2022-11-11T18:32:55.993Z,7.03
2022-11-11T18:35:41.626Z,7.78
2022-11-11T18:38:29.700Z,7.50
2022-11-11T18:41:20.212Z,8.02
2022-11-11T18:44:06.214Z,6.43
2022-11-11T18:46:51.842Z,6.63
2022-11-11T18:49:37.534Z,5.80
2022-11-11T18:52:23.179Z,5.13
2022-11-11T18:55:09.212Z,5.73
2022-11-11T18:57:54.434Z,5.10
2022-11-11T19:00:41.430Z,5.30
2022-11-11T19:03:27.895Z,4.82
2022-11-11T19:09:08.014Z,5.00
2022-11-11T19:11:54.382Z,6.88
2022-11-11T19:14:40.361Z,5.43
2022-11-11T19:17:26.082Z,4.18
2022-11-11T19:20:11.821Z,4.27
2022-11-11T19:22:57.683Z,4.30
2022-11-11T19:25:43.486Z,4.07
2022-11-11T19:28:29.761Z,3.75
2022-11-11T19:31:17.651Z,3.55
2022-11-11T19:34:03.435Z,3.58
2022-11-11T19:36:49.895Z,3.55
2022-11-11T19:39:35.340Z,4.30
2022-11-11T19:42:21.088Z,2.97
2022-11-11T19:45:07.654Z,3.58
2022-11-11T19:47:53.585Z,4.30
2022-11-11T19:50:39.254Z,3.88
2022-11-11T19:53:25.516Z,3.90
2022-11-11T19:58:58.376Z,3.70
2022-11-11T20:01:45.475Z,4.28
2022-11-11T20:04:31.411Z,4.55
2022-11-11T20:07:17.460Z,5.28
2022-11-11T20:10:03.578Z,4.93
2022-11-11T20:12:51.900Z,3.85
2022-11-11T20:15:38.316Z,3.83
2022-11-11T20:18:24.036Z,3.53
2022-11-11T20:21:09.810Z,3.55
2022-11-11T20:23:55.485Z,3.20
2022-11-11T20:26:41.219Z,3.73
2022-11-11T20:29:27.664Z,4.25
2022-11-11T20:34:59.362Z,3.30
2022-11-11T20:37:44.814Z,3.65
2022-11-11T20:40:30.860Z,3.30
2022-11-11T20:43:16.834Z,3.75
2022-11-11T20:46:23.503Z,3.92
2022-11-11T20:49:09.477Z,3.15
2022-11-11T20:51:55.188Z,3.73
2022-11-11T20:54:40.801Z,3.47
2022-11-11T20:57:26.304Z,3.30
2022-11-11T21:00:12.333Z,3.22
2022-11-11T21:02:58.301Z,3.40
2022-11-11T21:05:44.152Z,2.78
2022-11-11T21:08:32.863Z,3.58
2022-11-11T21:11:20.257Z,3.58
2022-11-11T21:14:05.938Z,2.88
2022-11-11T21:16:51.681Z,2.47
2022-11-11T21:19:37.671Z,2.80
2022-11-11T21:22:23.577Z,2.78
2022-11-11T21:25:09.464Z,4.20
2022-11-11T21:27:55.592Z,3.78
2022-11-11T21:30:41.350Z,3.80
2022-11-11T21:33:27.875Z,3.20
2022-11-11T21:36:14.192Z,3.05
2022-11-11T21:39:02.094Z,3.45
2022-11-11T21:41:48.404Z,2.95
2022-11-11T21:44:34.178Z,2.97
2022-11-11T21:47:19.895Z,4.68
2022-11-11T21:50:05.698Z,3.80
2022-11-11T21:52:51.275Z,2.97
2022-11-11T21:55:37.163Z,3.67
2022-11-11T21:58:23.513Z,3.58
2022-11-11T22:03:59.947Z,3.35
2022-11-11T22:06:45.955Z,3.55
2022-11-11T22:09:31.757Z,3.30
2022-11-11T22:12:17.882Z,3.60
2022-11-11T22:15:07.848Z,3.58
2022-11-11T22:17:54.226Z,3.63
2022-11-11T22:20:39.813Z,3.50
2022-11-11T22:23:26.200Z,3.05
2022-11-11T22:26:12.277Z,3.10
2022-11-11T22:28:58.057Z,3.38
2022-11-11T22:31:44.628Z,4.05
2022-11-11T22:37:15.661Z,2.60
2022-11-11T22:40:01.517Z,3.25
2022-11-11T22:42:47.511Z,2.90
2022-11-11T22:45:32.919Z,2.47
2022-11-11T22:48:18.563Z,2.53
2022-11-11T22:51:12.264Z,1.90
2022-11-11T22:54:00.714Z,1.90
2022-11-11T22:56:46.426Z,2.30
2022-11-11T22:59:32.260Z,2.10
2022-11-11T23:02:17.773Z,2.55
2022-11-11T23:05:03.738Z,2.50
2022-11-11T23:07:49.537Z,2.42
2022-11-11T23:10:35.518Z,2.70
2022-11-11T23:13:21.132Z,2.10
2022-11-11T23:16:07.594Z,2.22
2022-11-11T23:18:53.678Z,2.30
2022-11-11T23:21:39.552Z,2.30
2022-11-11T23:24:25.515Z,2.10
2022-11-11T23:27:11.823Z,2.17
2022-11-11T23:29:58.989Z,2.25
2022-11-11T23:32:44.182Z,2.85
2022-11-11T23:35:29.912Z,2.63
2022-11-11T23:38:15.768Z,2.20
2022-11-11T23:41:01.650Z,2.80
2022-11-11T23:43:47.121Z,2.78
2022-11-11T23:46:33.101Z,2.75
2022-11-11T23:49:18.465Z,2.85
2022-11-11T23:52:04.550Z,2.60
2022-11-11T23:54:49.835Z,2.38
2022-11-11T23:57:35.574Z,2.63
